createdAt,value
2022-10-19T00:02:59.691Z,13.53
2022-10-19T00:06:11.096Z,13.90
2022-10-19T00:09:15.912Z,12.53
2022-10-19T00:12:17.568Z,12.63
2022-10-19T00:15:19.594Z,13.00
2022-10-19T00:18:22.133Z,13.53
2022-10-19T00:21:23.859Z,14.13
2022-10-19T00:24:25.457Z,14.90
2022-10-19T00:27:27.017Z,15.23
2022-10-19T00:30:28.649Z,16.43
2022-10-19T00:33:30.221Z,18.67
2022-10-19T00:36:34.726Z,18.33
2022-10-19T00:39:36.302Z,18.13
2022-10-19T00:42:37.850Z,18.23
2022-10-19T00:45:40.135Z,22.77
2022-10-19T00:48:41.758Z,23.00
2022-10-19T00:51:50.816Z,22.90
2022-10-19T00:54:53.683Z,23.77
2022-10-19T00:57:55.638Z,23.53
2022-10-19T01:00:59.102Z,27.20
2022-10-19T01:04:02.217Z,25.70
2022-10-19T01:07:05.222Z,25.43
2022-10-19T01:10:07.333Z,25.57
2022-10-19T01:13:19.180Z,24.17
2022-10-19T01:16:53.164Z,22.37
2022-10-19T01:20:27.938Z,24.07
2022-10-19T01:23:44.526Z,23.87
2022-10-19T01:27:06.456Z,23.70
2022-10-19T01:30:28.615Z,23.77
2022-10-19T01:33:32.969Z,23.87
2022-10-19T01:36:56.958Z,21.77
2022-10-19T01:40:07.500Z,21.37
2022-10-19T01:43:12.008Z,20.90
2022-10-19T01:46:37.070Z,18.63
2022-10-19T01:49:55.221Z,18.37
2022-10-19T01:52:58.366Z,17.40
2022-10-19T01:56:02.732Z,17.63
2022-10-19T01:59:07.649Z,16.30
2022-10-19T02:02:11.608Z,17.30
2022-10-19T02:05:15.267Z,17.50
2022-10-19T02:08:24.544Z,16.90
2022-10-19T02:11:26.305Z,16.80
2022-10-19T02:14:36.793Z,17.07
2022-10-19T02:17:43.960Z,17.97
2022-10-19T02:20:46.197Z,19.17
2022-10-19T02:23:49.356Z,17.40
2022-10-19T02:26:55.076Z,18.07
2022-10-19T02:29:56.724Z,17.77
2022-10-19T02:32:58.359Z,17.40
2022-10-19T02:36:00.548Z,18.37
2022-10-19T02:39:02.881Z,19.00
2022-10-19T02:42:33.285Z,20.10
2022-10-19T02:45:44.648Z,18.77
2022-10-19T02:48:48.243Z,18.20
2022-10-19T02:51:59.253Z,17.40
2022-10-19T02:55:00.971Z,19.53
2022-10-19T02:58:02.529Z,17.00
2022-10-19T03:01:04.134Z,17.70
2022-10-19T03:04:05.842Z,17.60
2022-10-19T03:07:10.455Z,17.30
2022-10-19T03:10:12.076Z,17.47
2022-10-19T03:13:13.699Z,18.00
2022-10-19T03:16:15.284Z,18.40
2022-10-19T03:19:16.873Z,18.10
2022-10-19T03:22:18.431Z,19.00
2022-10-19T03:25:20.129Z,17.80
2022-10-19T03:28:21.685Z,17.40
2022-10-19T03:31:23.303Z,17.50
2022-10-19T03:34:24.943Z,17.47
2022-10-19T03:37:26.496Z,17.83
2022-10-19T03:40:28.068Z,16.90
2022-10-19T03:43:29.679Z,17.37
2022-10-19T03:46:31.853Z,17.33
2022-10-19T03:49:34.671Z,17.47
2022-10-19T03:52:38.415Z,17.80
2022-10-19T03:55:39.968Z,15.83
2022-10-19T03:58:42.528Z,18.73
2022-10-19T04:01:45.787Z,16.83
2022-10-19T04:04:47.331Z,17.10
2022-10-19T04:07:48.885Z,17.50
2022-10-19T04:10:50.441Z,17.23
2022-10-19T04:13:53.617Z,16.57
2022-10-19T04:16:55.176Z,18.63
2022-10-19T04:19:56.751Z,16.90
2022-10-19T04:22:58.332Z,16.53
2022-10-19T04:26:07.528Z,16.17
2022-10-19T04:29:10.394Z,16.60
2022-10-19T04:32:12.222Z,16.27
2022-10-19T04:35:13.880Z,16.00
2022-10-19T04:38:15.509Z,16.07
2022-10-19T04:41:19.088Z,17.57
2022-10-19T04:44:20.819Z,16.70
2022-10-19T04:47:22.467Z,16.57
2022-10-19T04:50:25.059Z,16.10
2022-10-19T04:53:27.656Z,16.53
2022-10-19T04:56:30.705Z,16.60
2022-10-19T04:59:32.351Z,16.07
2022-10-19T05:02:33.912Z,15.03
2022-10-19T05:05:35.776Z,16.30
2022-10-19T05:08:38.130Z,16.70
2022-10-19T05:11:39.797Z,16.17
2022-10-19T05:14:42.845Z,16.50
2022-10-19T05:17:47.949Z,16.90
2022-10-19T05:20:49.578Z,17.40
2022-10-19T05:23:53.335Z,17.90
2022-10-19T05:26:54.923Z,16.43
2022-10-19T05:29:56.487Z,16.77
2022-10-19T05:32:58.064Z,16.30
2022-10-19T05:35:59.708Z,16.20
2022-10-19T05:39:04.723Z,17.17
2022-10-19T05:42:06.271Z,16.20
2022-10-19T05:45:08.090Z,15.60
2022-10-19T05:48:09.661Z,16.90
2022-10-19T05:51:14.632Z,16.50
2022-10-19T05:54:16.965Z,15.93
2022-10-19T05:57:18.633Z,14.83
2022-10-19T06:00:20.293Z,15.93
2022-10-19T06:03:22.628Z,15.30
2022-10-19T06:06:25.386Z,15.97
2022-10-19T06:09:27.088Z,14.20
2022-10-19T06:12:28.631Z,15.17
2022-10-19T06:15:33.741Z,14.73
2022-10-19T06:18:35.760Z,15.27
2022-10-19T06:21:39.563Z,13.90
2022-10-19T06:24:43.507Z,14.27
2022-10-19T06:27:45.208Z,14.67
2022-10-19T06:30:46.878Z,13.40
2022-10-19T06:33:49.688Z,12.50
2022-10-19T06:36:51.555Z,13.57
2022-10-19T06:39:53.281Z,13.80
2022-10-19T06:42:56.159Z,12.50
2022-10-19T06:45:58.054Z,13.40
2022-10-19T06:49:01.733Z,12.67
2022-10-19T06:52:05.698Z,13.47
2022-10-19T06:55:07.884Z,13.27
2022-10-19T06:58:09.495Z,13.57
2022-10-19T07:01:12.702Z,14.27
2022-10-19T07:04:14.334Z,12.93
2022-10-19T07:07:15.916Z,11.23
2022-10-19T07:10:17.704Z,14.80
2022-10-19T07:13:19.793Z,12.50
2022-10-19T07:16:22.083Z,13.33
2022-10-19T07:19:27.057Z,13.40
2022-10-19T07:22:28.670Z,14.40
2022-10-19T07:25:30.720Z,13.90
2022-10-19T07:28:32.555Z,13.30
2022-10-19T07:31:34.249Z,12.70
2022-10-19T07:34:35.919Z,13.10
2022-10-19T07:37:37.576Z,11.23
2022-10-19T07:40:42.406Z,12.53
2022-10-19T07:43:48.024Z,13.67
2022-10-19T07:46:50.227Z,11.63
2022-10-19T07:49:51.799Z,11.90
2022-10-19T07:52:54.084Z,12.50
2022-10-19T07:55:55.916Z,12.27
2022-10-19T07:58:59.797Z,11.73
2022-10-19T08:02:04.522Z,12.13
2022-10-19T08:05:10.415Z,11.10
2022-10-19T08:08:13.222Z,12.90
2022-10-19T08:11:16.353Z,11.00
2022-10-19T08:14:17.921Z,13.07
2022-10-19T08:17:19.594Z,12.20
2022-10-19T08:20:21.243Z,11.97
2022-10-19T08:23:23.152Z,11.73
2022-10-19T08:26:25.299Z,12.47
2022-10-19T08:29:29.170Z,11.87
2022-10-19T08:32:33.373Z,12.00
2022-10-19T08:35:35.644Z,12.20
2022-10-19T08:38:37.866Z,12.20
2022-10-19T08:42:12.605Z,12.30
2022-10-19T08:45:33.340Z,12.30
2022-10-19T08:48:39.173Z,12.03
2022-10-19T08:51:43.016Z,12.50
2022-10-19T08:54:56.263Z,13.47
2022-10-19T08:58:07.003Z,11.70
2022-10-19T09:01:27.443Z,11.00
2022-10-19T09:04:33.053Z,12.73
2022-10-19T09:07:45.504Z,12.10
2022-10-19T09:10:51.472Z,12.83
2022-10-19T09:14:06.162Z,11.30
2022-10-19T09:17:14.336Z,12.97
2022-10-19T09:20:22.461Z,12.20
2022-10-19T09:23:39.668Z,11.33
2022-10-19T09:26:55.028Z,11.60
2022-10-19T09:29:58.393Z,10.70
2022-10-19T09:33:02.075Z,11.37
2022-10-19T09:36:06.347Z,11.27
2022-10-19T09:39:12.128Z,11.70
2022-10-19T09:42:26.280Z,11.17
2022-10-19T09:45:58.955Z,10.63
2022-10-19T09:49:03.032Z,11.30
2022-10-19T09:52:04.878Z,11.17
2022-10-19T09:55:18.185Z,10.53
2022-10-19T09:58:20.729Z,11.17
2022-10-19T10:01:41.744Z,11.80
2022-10-19T10:04:57.381Z,10.63
2022-10-19T10:07:59.187Z,11.80
2022-10-19T10:11:08.579Z,11.40
2022-10-19T10:14:23.404Z,10.50
2022-10-19T10:17:30.466Z,11.70
2022-10-19T10:20:32.520Z,11.33
2022-10-19T10:23:36.273Z,11.93
2022-10-19T10:26:46.921Z,11.37
2022-10-19T10:33:15.748Z,11.10
2022-10-19T10:36:27.248Z,9.57
2022-10-19T10:39:30.156Z,9.43
2022-10-19T10:42:41.442Z,8.87
2022-10-19T10:45:46.900Z,9.33
2022-10-19T10:49:01.260Z,8.80
2022-10-19T10:52:20.897Z,9.70
2022-10-19T10:55:22.582Z,10.23
2022-10-19T10:58:32.173Z,10.63
2022-10-19T11:01:40.011Z,9.70
2022-10-19T11:05:06.134Z,9.43
2022-10-19T11:08:33.653Z,9.20
2022-10-19T11:11:39.745Z,9.40
2022-10-19T11:14:49.294Z,9.23
2022-10-19T11:18:01.105Z,9.50
2022-10-19T11:21:22.314Z,8.93
2022-10-19T11:24:57.601Z,9.03
2022-10-19T11:28:15.333Z,8.13
2022-10-19T11:31:29.695Z,8.07
2022-10-19T11:34:34.293Z,9.07
2022-10-19T11:38:19.631Z,8.30
2022-10-19T11:41:47.037Z,8.37
2022-10-19T11:44:51.437Z,8.43
2022-10-19T11:48:23.867Z,8.20
2022-10-19T11:51:49.613Z,7.70
2022-10-19T11:55:07.245Z,8.43
2022-10-19T11:58:46.383Z,7.53
2022-10-19T12:02:26.827Z,8.50
2022-10-19T12:05:46.988Z,7.20
2022-10-19T12:09:16.385Z,7.70
2022-10-19T12:12:30.790Z,7.70
2022-10-19T12:15:43.392Z,6.60
2022-10-19T12:18:55.420Z,7.10
2022-10-19T12:22:03.393Z,7.40
2022-10-19T12:25:06.022Z,7.20
2022-10-19T12:28:14.912Z,6.90
2022-10-19T12:31:18.255Z,7.53
2022-10-19T12:34:35.706Z,7.13
2022-10-19T12:37:43.777Z,6.90
2022-10-19T12:40:58.307Z,7.40
2022-10-19T12:47:26.575Z,7.77
2022-10-19T12:50:49.868Z,7.07
2022-10-19T12:53:51.471Z,7.00
2022-10-19T12:56:55.283Z,7.07
2022-10-19T13:00:05.960Z,6.87
2022-10-19T13:03:16.117Z,8.00
2022-10-19T13:06:25.515Z,6.93
2022-10-19T13:09:31.857Z,8.20
2022-10-19T13:12:45.253Z,6.93
2022-10-19T13:15:51.525Z,7.17
2022-10-19T13:19:11.925Z,8.17
2022-10-19T13:22:28.249Z,8.63
2022-10-19T13:25:31.386Z,7.77
2022-10-19T13:28:38.109Z,8.57
2022-10-19T13:31:39.768Z,6.73
2022-10-19T13:34:41.536Z,8.40
2022-10-19T13:37:43.709Z,9.13
2022-10-19T13:40:51.367Z,7.47
2022-10-19T13:44:15.104Z,8.50
2022-10-19T13:47:35.216Z,7.73
2022-10-19T13:50:41.728Z,7.47
2022-10-19T13:54:06.078Z,7.53
2022-10-19T13:57:13.396Z,7.83
2022-10-19T14:00:22.974Z,8.40
2022-10-19T14:03:50.639Z,8.13
2022-10-19T14:07:01.601Z,8.23
2022-10-19T14:10:18.062Z,8.00
2022-10-19T14:13:22.236Z,7.70
2022-10-19T14:16:23.809Z,7.77
2022-10-19T14:19:31.368Z,7.80
2022-10-19T14:22:34.436Z,7.20
2022-10-19T14:25:36.962Z,6.87
2022-10-19T14:28:40.342Z,6.13
2022-10-19T14:31:42.168Z,6.13
2022-10-19T14:34:46.159Z,7.23
2022-10-19T14:37:48.287Z,6.53
2022-10-19T14:40:49.862Z,7.37
2022-10-19T14:43:51.524Z,7.00
2022-10-19T14:46:53.705Z,7.10
2022-10-19T14:49:55.271Z,7.87
2022-10-19T14:53:05.020Z,6.27
2022-10-19T14:56:13.425Z,5.97
2022-10-19T14:59:28.786Z,6.57
2022-10-19T15:02:42.573Z,6.23
2022-10-19T15:05:49.126Z,6.37
2022-10-19T15:08:57.734Z,6.17
2022-10-19T15:12:14.953Z,5.80
2022-10-19T15:15:19.277Z,6.27
2022-10-19T15:18:44.159Z,6.30
2022-10-19T15:21:46.158Z,6.63
2022-10-19T15:25:14.039Z,5.80
2022-10-19T15:28:21.243Z,5.80
2022-10-19T15:31:28.424Z,5.87
2022-10-19T15:34:30.943Z,6.50
2022-10-19T15:37:32.597Z,6.97
2022-10-19T15:40:37.212Z,6.97
2022-10-19T15:43:45.572Z,7.17
2022-10-19T15:46:47.123Z,7.10
2022-10-19T15:50:00.994Z,6.30
2022-10-19T15:53:02.608Z,7.23
2022-10-19T15:59:19.540Z,7.70
2022-10-19T16:02:21.394Z,8.23
2022-10-19T16:05:23.747Z,7.93
2022-10-19T16:08:25.490Z,8.70
2022-10-19T16:11:28.883Z,8.53
2022-10-19T16:14:33.088Z,7.87
2022-10-19T16:17:37.747Z,7.23
2022-10-19T16:20:40.283Z,7.50
2022-10-19T16:23:42.291Z,7.40
2022-10-19T16:26:44.764Z,6.80
2022-10-19T16:29:46.441Z,7.27
2022-10-19T16:32:49.080Z,7.90
2022-10-19T16:35:50.782Z,8.30
2022-10-19T16:38:52.426Z,9.17
2022-10-19T16:41:54.095Z,9.07
2022-10-19T16:44:55.759Z,8.97
2022-10-19T16:47:57.504Z,8.20
2022-10-19T16:51:10.213Z,8.37
2022-10-19T16:54:12.205Z,8.07
2022-10-19T16:57:13.956Z,8.10
2022-10-19T17:00:15.598Z,9.57
2022-10-19T17:03:17.458Z,8.57
2022-10-19T17:06:19.804Z,8.77
2022-10-19T17:09:41.694Z,9.53
2022-10-19T17:12:43.159Z,11.00
2022-10-19T17:15:44.760Z,11.33
2022-10-19T17:18:46.942Z,11.50
2022-10-19T17:21:49.500Z,11.40
2022-10-19T17:24:51.446Z,10.97
2022-10-19T17:27:53.143Z,11.20
2022-10-19T17:30:55.196Z,11.80
2022-10-19T17:33:57.309Z,11.03
2022-10-19T17:36:58.947Z,13.00
2022-10-19T17:40:00.578Z,12.47
2022-10-19T17:43:02.192Z,10.70
2022-10-19T17:46:06.008Z,12.90
2022-10-19T17:49:07.930Z,13.27
2022-10-19T17:52:09.541Z,12.40
2022-10-19T17:55:13.133Z,11.97
2022-10-19T17:58:15.145Z,12.20
2022-10-19T18:01:19.298Z,13.03
2022-10-19T18:04:21.127Z,13.23
2022-10-19T18:07:25.605Z,13.50
2022-10-19T18:10:27.277Z,12.27
2022-10-19T18:13:29.576Z,12.37
2022-10-19T18:16:40.275Z,12.40
2022-10-19T18:19:42.369Z,12.77
2022-10-19T18:22:43.999Z,11.93
2022-10-19T18:25:54.022Z,11.77
2022-10-19T18:28:57.151Z,10.67
2022-10-19T18:31:59.042Z,11.30
2022-10-19T18:35:00.677Z,11.10
2022-10-19T18:38:03.279Z,12.57
2022-10-19T18:44:25.487Z,11.57
2022-10-19T18:47:30.409Z,11.17
2022-10-19T18:50:32.117Z,11.50
2022-10-19T18:53:34.834Z,11.97
2022-10-19T18:56:36.594Z,12.30
2022-10-19T18:59:38.341Z,10.50
2022-10-19T19:02:46.710Z,12.30
2022-10-19T19:05:48.979Z,12.10
2022-10-19T19:08:51.250Z,12.30
2022-10-19T19:11:54.266Z,11.13
2022-10-19T19:14:55.941Z,13.93
2022-10-19T19:17:57.599Z,13.30
2022-10-19T19:21:03.876Z,14.53
2022-10-19T19:24:07.116Z,15.00
2022-10-19T19:27:09.530Z,14.80
2022-10-19T19:30:11.250Z,13.10
2022-10-19T19:33:13.850Z,12.60
2022-10-19T19:36:17.341Z,14.93
2022-10-19T19:39:20.792Z,13.87
2022-10-19T19:42:27.644Z,14.07
2022-10-19T19:45:29.654Z,14.67
2022-10-19T19:48:31.396Z,14.07
2022-10-19T19:51:33.662Z,13.30
2022-10-19T19:54:35.263Z,13.60
2022-10-19T19:57:37.384Z,13.00
2022-10-19T20:00:39.678Z,12.90
2022-10-19T20:03:41.841Z,12.93
2022-10-19T20:06:44.521Z,11.80
2022-10-19T20:09:46.117Z,11.83
2022-10-19T20:12:47.845Z,12.87
2022-10-19T20:15:49.463Z,13.07
2022-10-19T20:18:55.508Z,13.60
2022-10-19T20:21:58.107Z,12.23
2022-10-19T20:24:59.771Z,12.40
2022-10-19T20:28:01.407Z,11.80
2022-10-19T20:31:05.932Z,12.57
2022-10-19T20:34:12.233Z,13.90
2022-10-19T20:37:13.843Z,11.50
2022-10-19T20:40:16.100Z,11.20
2022-10-19T20:43:17.785Z,11.67
2022-10-19T20:46:23.080Z,10.47
2022-10-19T20:49:24.681Z,11.07
2022-10-19T20:52:26.269Z,12.00
2022-10-19T20:55:27.845Z,10.87
2022-10-19T20:58:29.458Z,11.63
2022-10-19T21:01:33.654Z,11.60
2022-10-19T21:04:35.516Z,11.97
2022-10-19T21:07:37.136Z,11.60
2022-10-19T21:10:38.769Z,11.40
2022-10-19T21:13:43.821Z,12.80
2022-10-19T21:16:45.788Z,13.93
2022-10-19T21:19:47.445Z,13.23
2022-10-19T21:22:49.001Z,13.33
2022-10-19T21:25:54.822Z,14.37
2022-10-19T21:28:56.990Z,13.80
2022-10-19T21:31:58.922Z,13.30
2022-10-19T21:35:00.542Z,14.53
2022-10-19T21:38:02.167Z,13.43
2022-10-19T21:41:09.021Z,13.87
2022-10-19T21:44:10.960Z,13.50
2022-10-19T21:47:12.662Z,14.30
2022-10-19T21:50:17.264Z,15.00
2022-10-19T21:53:23.799Z,15.03
2022-10-19T21:56:25.595Z,13.60
2022-10-19T21:59:27.292Z,13.30
2022-10-19T22:02:28.867Z,14.23
2022-10-19T22:05:30.531Z,13.30
2022-10-19T22:08:32.591Z,13.83
2022-10-19T22:11:34.749Z,15.00
2022-10-19T22:14:36.342Z,15.13
2022-10-19T22:17:37.975Z,15.07
2022-10-19T22:20:40.155Z,15.23
2022-10-19T22:23:42.494Z,15.53
2022-10-19T22:26:47.208Z,15.23
2022-10-19T22:29:51.881Z,14.40
2022-10-19T22:32:53.486Z,14.43
2022-10-19T22:35:59.836Z,13.60
2022-10-19T22:39:01.692Z,14.10
2022-10-19T22:42:03.286Z,14.87
2022-10-19T22:45:05.524Z,14.03
2022-10-19T22:48:07.546Z,14.73
2022-10-19T22:51:09.153Z,13.83
2022-10-19T22:54:10.898Z,14.87
2022-10-19T22:57:12.493Z,14.00
2022-10-19T23:00:14.186Z,14.47
2022-10-19T23:03:15.863Z,14.60
2022-10-19T23:06:17.826Z,13.80
2022-10-19T23:09:19.521Z,13.20
2022-10-19T23:12:21.601Z,14.30
2022-10-19T23:15:23.394Z,12.20
2022-10-19T23:18:25.202Z,13.47
2022-10-19T23:21:26.879Z,12.40
2022-10-19T23:24:28.503Z,12.83
2022-10-19T23:27:30.076Z,12.43
2022-10-19T23:30:31.719Z,13.00
2022-10-19T23:33:33.897Z,11.60
2022-10-19T23:36:35.482Z,12.50
2022-10-19T23:39:37.079Z,12.10
2022-10-19T23:42:38.684Z,10.80
2022-10-19T23:45:40.345Z,11.50
2022-10-19T23:48:42.168Z,11.80
2022-10-19T23:51:43.802Z,11.00
2022-10-19T23:54:45.397Z,11.10
2022-10-19T23:57:46.975Z,11.40
